Time;durP1;ratioP1;P1;durP2;ratioP2;P2;SDS_P1;SDS_P2;PMS_P1;PMS_P2;Temp;Humidity;BMP_temperature;BMP_pressure;BME280_temperature;BME280_humidity;BME280_pressure;Samples;Min_cycle;Max_cycle;Signal;HPM_P1;HPM_P2
2022/04/01 00:00:05;;;;;;;;;;;3.40;97.10;;;;;;5051215;28;19966;-55
2022/04/01 00:02:30;;;;;;;;;;;3.40;97.10;;;;;;5051556;28;19963;-54
2022/04/01 00:04:56;;;;;;;;;;;3.40;97.20;;;;;;5049267;28;19912;-55
2022/04/01 00:07:21;;;;;;;;;;;3.40;97.20;;;;;;5049431;28;19935;-56
2022/04/01 00:09:47;;;;;;;;;;;3.40;97.20;;;;;;5049866;28;19936;-55
2022/04/01 00:12:13;;;;;;;;;;;3.50;97.30;;;;;;5033466;28;19931;-52
2022/04/01 00:14:38;;;;;;;;;;;3.50;97.30;;;;;;5052936;28;19909;-54
2022/04/01 00:17:04;;;;;;;;;;;3.40;97.30;;;;;;5049109;28;20381;-55
2022/04/01 00:19:30;;;;;;;;;;;3.50;97.40;;;;;;5049256;28;19919;-52
2022/04/01 00:21:56;;;;;;;;;;;3.40;97.50;;;;;;5048850;28;19970;-52
2022/04/01 00:24:22;;;;;;;;;;;3.40;97.60;;;;;;5049306;28;19917;-57
2022/04/01 00:26:48;;;;;;;;;;;3.40;97.70;;;;;;5052471;28;20365;-57
2022/04/01 00:29:16;;;;;;;;;;;3.40;97.60;;;;;;5049632;28;19908;-55
2022/04/01 00:31:41;;;;;;;;;;;3.40;97.50;;;;;;5049031;28;20011;-53
2022/04/01 00:34:16;;;;;;;;;;;3.40;97.50;;;;;;5049008;28;20005;-55
2022/04/01 00:36:45;;;;;;;;;;;3.30;97.60;;;;;;5048752;28;19913;-57
2022/04/01 00:39:11;;;;;;;;;;;3.30;97.70;;;;;;5032220;28;19913;-55
2022/04/01 00:41:37;;;;;;;;;;;3.30;97.70;;;;;;5051653;28;20015;-56
2022/04/01 00:44:13;;;;;;;;;;;3.30;97.90;;;;;;5048798;28;20488;-56
2022/04/01 00:46:42;;;;;;;;;;;3.30;97.90;;;;;;5048961;28;19966;-54
2022/04/01 00:49:08;;;;;;;;;;;3.30;97.90;;;;;;5031337;28;19920;-56
2022/04/01 00:51:34;;;;;;;;;;;3.30;97.90;;;;;;5048165;28;19925;-55
2022/04/01 00:53:59;;;;;;;;;;;3.30;97.80;;;;;;5051058;28;19909;-55
2022/04/01 00:56:30;;;;;;;;;;;3.40;97.90;;;;;;5049810;28;19956;-55
2022/04/01 00:58:56;;;;;;;;;;;3.40;98.00;;;;;;5048703;28;19920;-56
2022/04/01 01:01:21;;;;;;;;;;;3.40;98.10;;;;;;5048620;28;19915;-53
2022/04/01 01:03:47;;;;;;;;;;;3.40;98.10;;;;;;5048518;28;19924;-56
2022/04/01 01:06:12;;;;;;;;;;;3.40;98.20;;;;;;5048529;28;19916;-57
2022/04/01 01:08:40;;;;;;;;;;;3.40;98.60;;;;;;5051340;28;20457;-53
2022/04/01 01:11:06;;;;;;;;;;;3.40;98.40;;;;;;5048630;28;19916;-58
2022/04/01 01:13:32;;;;;;;;;;;3.40;98.50;;;;;;5049487;28;20293;-57
2022/04/01 01:15:57;;;;;;;;;;;3.40;98.60;;;;;;5048518;28;19919;-56
2022/04/01 01:18:23;;;;;;;;;;;3.40;98.70;;;;;;5048385;28;19913;-56
2022/04/01 01:20:49;;;;;;;;;;;3.40;98.70;;;;;;5050948;28;19913;-55
2022/04/01 01:23:14;;;;;;;;;;;3.30;98.90;;;;;;5028618;28;19916;-55
2022/04/01 01:25:40;;;;;;;;;;;3.30;99.10;;;;;;5044217;28;19912;-51
2022/04/01 01:28:06;;;;;;;;;;;3.30;99.40;;;;;;5047572;28;19987;-56
2022/04/01 01:30:33;;;;;;;;;;;3.40;99.50;;;;;;5047837;28;19979;-55
2022/04/01 01:32:58;;;;;;;;;;;3.40;99.60;;;;;;5050359;28;19908;-55
2022/04/01 01:35:24;;;;;;;;;;;3.30;99.80;;;;;;5048655;28;19909;-56
2022/04/01 01:37:49;;;;;;;;;;;3.30;99.90;;;;;;5048566;28;19920;-52
2022/04/01 01:40:15;;;;;;;;;;;3.30;99.90;;;;;;5047706;28;20324;-57
2022/04/01 01:42:40;;;;;;;;;;;3.30;99.90;;;;;;5047598;28;19923;-56
2022/04/01 01:45:06;;;;;;;;;;;3.30;99.90;;;;;;5049074;28;19920;-55
2022/04/01 01:47:32;;;;;;;;;;;3.30;99.90;;;;;;5049649;28;19977;-56
2022/04/01 01:55:30;;;;;;;;;;;3.30;99.90;;;;;;5048062;28;19966;-58
2022/04/01 01:57:56;;;;;;;;;;;3.20;99.90;;;;;;5047358;28;19912;-57
2022/04/01 02:00:22;;;;;;;;;;;3.20;99.90;;;;;;5047331;28;19909;-56
2022/04/01 02:02:50;;;;;;;;;;;3.10;99.90;;;;;;5050300;28;20031;-58
2022/04/01 02:05:19;;;;;;;;;;;3.20;99.90;;;;;;5048632;28;19951;-58
2022/04/01 02:07:47;;;;;;;;;;;3.20;99.90;;;;;;5032053;28;20003;-58
2022/04/01 02:10:16;;;;;;;;;;;3.20;99.90;;;;;;5047256;28;20012;-58
2022/04/01 02:12:43;;;;;;;;;;;3.10;99.90;;;;;;5047028;28;20289;-58
2022/04/01 02:15:10;;;;;;;;;;;3.10;99.90;;;;;;5048308;28;20370;-58
2022/04/01 02:17:40;;;;;;;;;;;3.10;99.90;;;;;;5049773;28;19909;-58
2022/04/01 02:20:09;;;;;;;;;;;3.00;99.90;;;;;;5047090;28;19909;-57
2022/04/01 02:22:38;;;;;;;;;;;3.00;99.90;;;;;;5046915;28;19913;-58
2022/04/01 02:25:04;;;;;;;;;;;3.00;99.90;;;;;;5047266;28;20022;-57
2022/04/01 02:27:30;;;;;;;;;;;3.10;99.90;;;;;;5047043;28;20012;-55
2022/04/01 02:29:56;;;;;;;;;;;3.10;99.90;;;;;;5049816;28;19954;-58
2022/04/01 02:32:25;;;;;;;;;;;3.20;99.90;;;;;;5048001;28;19921;-56
2022/04/01 02:34:50;;;;;;;;;;;3.20;99.90;;;;;;5047220;28;19920;-56
2022/04/01 02:37:19;;;;;;;;;;;3.20;99.90;;;;;;5047403;28;19913;-57
2022/04/01 02:39:44;;;;;;;;;;;3.20;99.90;;;;;;5046491;28;19928;-56
2022/04/01 02:42:10;;;;;;;;;;;3.10;99.90;;;;;;5047748;28;19914;-55
2022/04/01 02:44:35;;;;;;;;;;;3.10;99.90;;;;;;5049589;28;19913;-56
2022/04/01 02:47:01;;;;;;;;;;;3.10;99.90;;;;;;5046456;28;20025;-54
2022/04/01 02:49:27;;;;;;;;;;;3.10;99.90;;;;;;5046697;28;20386;-57
2022/04/01 02:51:53;;;;;;;;;;;3.10;99.90;;;;;;5047333;28;19928;-58
2022/04/01 02:54:20;;;;;;;;;;;3.10;99.90;;;;;;5046946;28;19995;-54
2022/04/01 02:56:46;;;;;;;;;;;3.10;99.90;;;;;;5049983;28;19909;-57
2022/04/01 02:59:11;;;;;;;;;;;3.00;99.90;;;;;;5046777;28;19913;-57
2022/04/01 03:01:38;;;;;;;;;;;3.00;99.90;;;;;;5046892;28;20011;-55
2022/04/01 03:04:04;;;;;;;;;;;3.10;99.90;;;;;;5046544;28;20381;-55
2022/04/01 03:06:30;;;;;;;;;;;3.00;99.90;;;;;;5046734;28;19916;-56
2022/04/01 03:08:55;;;;;;;;;;;2.90;99.90;;;;;;5049471;28;19952;-56
2022/04/01 03:11:21;;;;;;;;;;;2.80;99.90;;;;;;5047628;28;19924;-57
2022/04/01 03:13:46;;;;;;;;;;;2.80;99.90;;;;;;5046583;28;20283;-55
2022/04/01 03:16:12;;;;;;;;;;;2.80;99.90;;;;;;5046432;28;20646;-56
2022/04/01 03:18:40;;;;;;;;;;;2.80;99.90;;;;;;5030828;28;20038;-55
2022/04/01 03:21:07;;;;;;;;;;;2.80;99.90;;;;;;5048429;28;19912;-55
2022/04/01 03:23:32;;;;;;;;;;;2.70;99.90;;;;;;5048674;28;20407;-57
2022/04/01 03:25:58;;;;;;;;;;;2.70;99.90;;;;;;5046415;28;19908;-57
2022/04/01 03:28:23;;;;;;;;;;;2.60;99.90;;;;;;5046645;28;20460;-54
2022/04/01 03:30:51;;;;;;;;;;;2.60;99.90;;;;;;5046808;28;19996;-58
2022/04/01 03:33:17;;;;;;;;;;;2.60;99.90;;;;;;5046577;28;19913;-55
2022/04/01 03:35:43;;;;;;;;;;;2.60;99.90;;;;;;5046094;28;19974;-57
2022/04/01 03:38:11;;;;;;;;;;;2.60;99.90;;;;;;5046365;28;20460;-56
2022/04/01 03:40:38;;;;;;;;;;;2.60;99.90;;;;;;5046882;28;19944;-56
2022/04/01 03:43:05;;;;;;;;;;;2.60;99.90;;;;;;5046644;28;19916;-56
2022/04/01 03:45:31;;;;;;;;;;;2.60;99.90;;;;;;5046106;28;20375;-57
2022/04/01 03:48:06;;;;;;;;;;;2.60;99.90;;;;;;5048830;28;19947;-59
2022/04/01 03:50:32;;;;;;;;;;;2.60;99.90;;;;;;5048487;28;19908;-57
2022/04/01 03:53:05;;;;;;;;;;;2.50;99.90;;;;;;5048858;28;19928;-58
2022/04/01 03:55:31;;;;;;;;;;;2.50;99.90;;;;;;5049643;28;19920;-56
2022/04/01 03:58:00;;;;;;;;;;;2.50;99.90;;;;;;5050027;28;19917;-57
2022/04/01 04:00:26;;;;;;;;;;;2.50;99.90;;;;;;5050013;28;20251;-57
2022/04/01 04:02:51;;;;;;;;;;;2.50;99.90;;;;;;5052313;28;20388;-55
2022/04/01 04:05:18;;;;;;;;;;;2.50;99.90;;;;;;5050315;28;20362;-57
2022/04/01 04:07:44;;;;;;;;;;;2.50;99.90;;;;;;5049646;28;19962;-57
2022/04/01 04:10:10;;;;;;;;;;;2.60;99.90;;;;;;5050179;28;20091;-57
2022/04/01 04:12:35;;;;;;;;;;;2.60;99.90;;;;;;5049098;28;19953;-55
2022/04/01 04:15:01;;;;;;;;;;;2.60;99.90;;;;;;5051769;28;19909;-57
2022/04/01 04:17:30;;;;;;;;;;;2.60;99.90;;;;;;5050615;28;20361;-56
2022/04/01 04:19:56;;;;;;;;;;;2.70;99.90;;;;;;5049229;28;19960;-56
2022/04/01 04:22:42;;;;;;;;;;;2.70;99.90;;;;;;5049278;28;19913;-55
2022/04/01 04:25:10;;;;;;;;;;;2.70;99.90;;;;;;5049119;28;19936;-55
2022/04/01 04:27:36;;;;;;;;;;;2.70;99.90;;;;;;5049598;28;20016;-56
2022/04/01 04:30:08;;;;;;;;;;;2.70;99.90;;;;;;5051279;28;20401;-54
2022/04/01 04:32:43;;;;;;;;;;;2.70;99.90;;;;;;5051167;28;19946;-57
2022/04/01 04:35:11;;;;;;;;;;;2.70;99.90;;;;;;5048277;28;20124;-54
2022/04/01 04:37:40;;;;;;;;;;;2.70;99.90;;;;;;5049336;28;19955;-56
2022/04/01 04:40:06;;;;;;;;;;;2.70;99.90;;;;;;5048886;28;19966;-57
2022/04/01 04:42:32;;;;;;;;;;;2.70;99.90;;;;;;5048764;28;19917;-56
2022/04/01 04:44:58;;;;;;;;;;;2.70;99.90;;;;;;5051136;28;19916;-56
2022/04/01 04:47:28;;;;;;;;;;;2.70;99.90;;;;;;5049921;28;20327;-57
2022/04/01 04:49:57;;;;;;;;;;;2.80;99.90;;;;;;5048652;28;20480;-54
2022/04/01 04:52:26;;;;;;;;;;;2.80;99.90;;;;;;5048295;28;19921;-56
2022/04/01 04:54:52;;;;;;;;;;;2.80;99.90;;;;;;5048515;28;19916;-60
2022/04/01 04:57:19;;;;;;;;;;;2.80;99.90;;;;;;5048273;28;19920;-58
2022/04/01 04:59:46;;;;;;;;;;;2.80;99.90;;;;;;5052578;28;19944;-56
2022/04/01 05:02:26;;;;;;;;;;;2.80;99.90;;;;;;5048781;28;20369;-57
2022/04/01 05:04:58;;;;;;;;;;;2.80;99.90;;;;;;5047511;28;20329;-57
2022/04/01 05:07:26;;;;;;;;;;;2.80;99.90;;;;;;5048365;28;20451;-57
2022/04/01 05:09:52;;;;;;;;;;;2.80;99.90;;;;;;5048256;28;20373;-57
2022/04/01 05:12:26;;;;;;;;;;;2.80;99.90;;;;;;5048216;28;19924;-56
2022/04/01 05:15:12;;;;;;;;;;;2.80;99.90;;;;;;5050881;28;19913;-56
2022/04/01 05:17:43;;;;;;;;;;;2.80;99.90;;;;;;5032646;28;19916;-58
2022/04/01 05:20:15;;;;;;;;;;;2.80;99.90;;;;;;5048339;28;19970;-57
2022/04/01 05:22:47;;;;;;;;;;;2.80;99.90;;;;;;5048478;28;19913;-56
2022/04/01 05:25:16;;;;;;;;;;;2.80;99.90;;;;;;5033025;28;19917;-56
2022/04/01 05:27:46;;;;;;;;;;;2.80;99.90;;;;;;5047759;28;19927;-55
2022/04/01 05:30:13;;;;;;;;;;;2.80;99.90;;;;;;5049031;28;19931;-53
2022/04/01 05:32:58;;;;;;;;;;;2.90;99.90;;;;;;5050853;28;19973;-57
2022/04/01 05:35:25;;;;;;;;;;;2.90;99.90;;;;;;5051106;28;19923;-56
2022/04/01 05:37:51;;;;;;;;;;;2.90;99.90;;;;;;5047871;28;20427;-57
2022/04/01 05:40:16;;;;;;;;;;;2.90;99.90;;;;;;5047513;28;19913;-53
2022/04/01 05:42:44;;;;;;;;;;;2.90;99.90;;;;;;5047494;28;19909;-54
2022/04/01 05:45:10;;;;;;;;;;;2.90;99.90;;;;;;5049040;28;19921;-56
2022/04/01 05:47:35;;;;;;;;;;;2.90;99.90;;;;;;5050250;28;19923;-51
2022/04/01 05:50:01;;;;;;;;;;;2.90;99.90;;;;;;5047645;28;20008;-55
2022/04/01 05:52:28;;;;;;;;;;;2.80;99.90;;;;;;5047650;28;20381;-58
2022/04/01 05:54:54;;;;;;;;;;;2.80;99.90;;;;;;5047271;28;19940;-54
2022/04/01 05:57:20;;;;;;;;;;;2.80;99.90;;;;;;5047968;28;19920;-54
2022/04/01 05:59:46;;;;;;;;;;;2.80;99.90;;;;;;5051404;28;20281;-55
2022/04/01 06:02:30;;;;;;;;;;;2.70;99.90;;;;;;5048584;28;19917;-57
2022/04/01 06:04:56;;;;;;;;;;;2.70;99.90;;;;;;5047441;28;20063;-59
2022/04/01 06:07:34;;;;;;;;;;;2.70;99.90;;;;;;5047362;28;19999;-59
2022/04/01 06:09:59;;;;;;;;;;;2.80;99.90;;;;;;5047285;28;20296;-61
2022/04/01 06:12:28;;;;;;;;;;;2.90;99.90;;;;;;5047550;28;19924;-60
2022/04/01 06:14:58;;;;;;;;;;;2.90;99.90;;;;;;5049975;28;19919;-60
2022/04/01 06:17:29;;;;;;;;;;;2.90;99.90;;;;;;5048215;28;19925;-61
2022/04/01 06:19:56;;;;;;;;;;;2.90;99.90;;;;;;5046694;28;19913;-62
2022/04/01 06:22:24;;;;;;;;;;;2.90;99.90;;;;;;5047307;28;20316;-60
2022/04/01 06:25:02;;;;;;;;;;;2.80;99.90;;;;;;5047404;28;19960;-61
2022/04/01 06:27:38;;;;;;;;;;;2.80;99.90;;;;;;5047711;28;19962;-60
2022/04/01 06:30:05;;;;;;;;;;;2.70;99.90;;;;;;5049292;28;19913;-58
2022/04/01 06:32:51;;;;;;;;;;;2.60;99.90;;;;;;5050407;28;20365;-61
2022/04/01 06:35:36;;;;;;;;;;;2.50;99.90;;;;;;4969766;28;19989;-61
2022/04/01 06:38:06;;;;;;;;;;;2.40;99.90;;;;;;4960308;28;19921;-60
2022/04/01 06:40:41;;;;;;;;;;;2.30;99.90;;;;;;4963671;28;20355;-59
2022/04/01 06:43:06;;;;;;;;;;;2.20;99.90;;;;;;4965787;28;19946;-60
2022/04/01 06:45:32;;;;;;;;;;;2.20;99.90;;;;;;4963425;28;20034;-58
2022/04/01 06:47:57;;;;;;;;;;;2.20;99.90;;;;;;4963666;28;19914;-61
2022/04/01 06:50:23;;;;;;;;;;;2.20;99.90;;;;;;4969781;28;19914;-58
2022/04/01 06:52:48;;;;;;;;;;;2.20;99.90;;;;;;4967990;28;19929;-60
2022/04/01 06:55:14;;;;;;;;;;;2.20;99.90;;;;;;4969057;28;19922;-59
2022/04/01 06:57:40;;;;;;;;;;;2.20;99.90;;;;;;4969771;28;19918;-60
2022/04/01 07:00:08;;;;;;;;;;;2.20;99.90;;;;;;4968984;28;19911;-60
2022/04/01 07:02:33;;;;;;;;;;;2.10;99.90;;;;;;4969736;28;19945;-59
2022/04/01 07:05:00;;;;;;;;;;;2.10;99.90;;;;;;4969241;28;20369;-58
2022/04/01 07:07:26;;;;;;;;;;;2.10;99.90;;;;;;4968436;28;19914;-60
2022/04/01 07:09:52;;;;;;;;;;;2.10;99.90;;;;;;4968997;28;19960;-58
2022/04/01 07:12:17;;;;;;;;;;;2.00;99.90;;;;;;4998823;28;19925;-58
2022/04/01 07:14:43;;;;;;;;;;;1.90;99.90;;;;;;5050822;28;19956;-58
2022/04/01 07:17:08;;;;;;;;;;;1.90;99.90;;;;;;5047466;28;19963;-59
2022/04/01 07:19:34;;;;;;;;;;;1.80;99.90;;;;;;5047122;28;20354;-55
2022/04/01 07:21:59;;;;;;;;;;;1.90;99.90;;;;;;5046653;28;19912;-56
2022/04/01 07:24:26;;;;;;;;;;;1.90;99.90;;;;;;5047437;28;20345;-56
2022/04/01 07:26:51;;;;;;;;;;;1.80;99.90;;;;;;5051276;28;19909;-57
2022/04/01 07:29:17;;;;;;;;;;;1.80;99.90;;;;;;5051701;28;19987;-60
2022/04/01 07:34:26;;;;;;;;;;;1.80;99.90;;;;;;5050873;28;20009;-58
2022/04/01 07:36:52;;;;;;;;;;;1.70;99.90;;;;;;5050449;28;19934;-58
2022/04/01 07:39:17;;;;;;;;;;;1.70;99.90;;;;;;5050950;28;20454;-60
2022/04/01 07:41:43;;;;;;;;;;;1.70;99.90;;;;;;5049841;28;19967;-60
2022/04/01 07:44:09;;;;;;;;;;;1.70;99.90;;;;;;5050233;28;19936;-61
2022/04/01 07:46:34;;;;;;;;;;;1.70;99.90;;;;;;5050532;28;19960;-61
2022/04/01 07:49:00;;;;;;;;;;;1.70;99.90;;;;;;5050896;28;19932;-62
2022/04/01 07:51:25;;;;;;;;;;;1.70;99.90;;;;;;5049924;28;19951;-60
2022/04/01 07:53:51;;;;;;;;;;;1.70;99.90;;;;;;5053273;28;20298;-61
2022/04/01 07:56:16;;;;;;;;;;;1.80;99.90;;;;;;5051456;28;20014;-62
2022/04/01 07:58:42;;;;;;;;;;;1.80;99.90;;;;;;5050264;28;19935;-60
2022/04/01 08:01:07;;;;;;;;;;;1.70;99.90;;;;;;5050580;28;19963;-61
2022/04/01 08:03:33;;;;;;;;;;;1.80;99.90;;;;;;5050885;28;19943;-63
2022/04/01 08:05:59;;;;;;;;;;;1.80;99.90;;;;;;5052274;28;19932;-62
2022/04/01 08:08:24;;;;;;;;;;;1.80;99.90;;;;;;5051599;28;19967;-63
2022/04/01 08:10:51;;;;;;;;;;;1.80;99.90;;;;;;5049529;28;19979;-65
2022/04/01 08:13:17;;;;;;;;;;;1.80;99.90;;;;;;5050660;28;20495;-66
2022/04/01 08:15:43;;;;;;;;;;;1.80;99.90;;;;;;5049842;28;20427;-62
2022/04/01 08:18:09;;;;;;;;;;;1.80;99.90;;;;;;5033347;28;19937;-67
2022/04/01 08:20:34;;;;;;;;;;;1.80;99.90;;;;;;5051843;28;19924;-64
2022/04/01 08:23:00;;;;;;;;;;;1.80;99.90;;;;;;5049876;28;19932;-66
2022/04/01 08:25:25;;;;;;;;;;;1.80;99.90;;;;;;5050084;28;19938;-67
2022/04/01 08:27:51;;;;;;;;;;;1.80;99.90;;;;;;5050221;28;19956;-64
2022/04/01 08:30:16;;;;;;;;;;;1.80;99.90;;;;;;5049862;28;19934;-67
2022/04/01 08:32:42;;;;;;;;;;;1.80;99.90;;;;;;5052838;28;20337;-62
2022/04/01 08:35:08;;;;;;;;;;;1.80;99.90;;;;;;5049478;28;19982;-63
2022/04/01 08:37:33;;;;;;;;;;;1.80;99.90;;;;;;5049128;28;20004;-61
2022/04/01 08:39:59;;;;;;;;;;;1.80;99.90;;;;;;5048410;28;19928;-64
2022/04/01 08:42:26;;;;;;;;;;;1.70;99.90;;;;;;5049543;28;19928;-61
2022/04/01 08:44:52;;;;;;;;;;;1.80;99.90;;;;;;5051981;28;19954;-65
2022/04/01 08:47:17;;;;;;;;;;;1.70;99.90;;;;;;5050073;28;20011;-64
2022/04/01 08:49:43;;;;;;;;;;;1.70;99.90;;;;;;5048846;28;19913;-63
2022/04/01 08:52:08;;;;;;;;;;;1.70;99.90;;;;;;5049283;28;19921;-62
2022/04/01 08:54:35;;;;;;;;;;;1.80;99.90;;;;;;5049162;28;19928;-66
2022/04/01 08:57:00;;;;;;;;;;;1.80;99.90;;;;;;5051757;28;20293;-64
2022/04/01 08:59:27;;;;;;;;;;;1.80;99.90;;;;;;5050289;28;19916;-62
2022/04/01 09:02:01;;;;;;;;;;;1.80;99.90;;;;;;5031365;28;19913;-66
2022/04/01 09:04:26;;;;;;;;;;;1.90;99.90;;;;;;5048689;28;19966;-64
2022/04/01 09:06:52;;;;;;;;;;;1.90;99.90;;;;;;5040093;28;19917;-63
2022/04/01 09:09:25;;;;;;;;;;;1.90;99.90;;;;;;5037813;28;19919;-65
2022/04/01 09:12:04;;;;;;;;;;;1.90;99.90;;;;;;5037847;28;19921;-64
2022/04/01 09:14:29;;;;;;;;;;;1.90;99.90;;;;;;5040229;28;19913;-63
2022/04/01 09:16:56;;;;;;;;;;;1.90;99.90;;;;;;5042409;28;19920;-63
2022/04/01 09:19:28;;;;;;;;;;;1.90;99.90;;;;;;5043440;28;19916;-62
2022/04/01 09:21:53;;;;;;;;;;;1.90;99.90;;;;;;5041222;28;20430;-64
2022/04/01 09:24:19;;;;;;;;;;;1.90;99.90;;;;;;5042713;28;19916;-62
2022/04/01 09:26:44;;;;;;;;;;;1.90;99.90;;;;;;5042756;28;19913;-67
2022/04/01 09:29:11;;;;;;;;;;;1.90;99.90;;;;;;5041235;28;19913;-66
2022/04/01 09:31:38;;;;;;;;;;;1.90;99.90;;;;;;5042283;28;19920;-65
2022/04/01 09:34:06;;;;;;;;;;;1.90;99.90;;;;;;5044861;28;19917;-63
2022/04/01 09:36:38;;;;;;;;;;;1.90;99.90;;;;;;5045484;28;19948;-65
2022/04/01 09:39:07;;;;;;;;;;;1.90;99.90;;;;;;5045346;28;19917;-64
2022/04/01 09:41:37;;;;;;;;;;;1.90;99.90;;;;;;5039254;28;20406;-69
2022/04/01 09:44:04;;;;;;;;;;;1.90;99.90;;;;;;5040989;28;19980;-63
2022/04/01 09:46:30;;;;;;;;;;;1.90;99.90;;;;;;5041497;28;19916;-66
2022/04/01 09:48:56;;;;;;;;;;;1.90;99.90;;;;;;5040528;28;20463;-61
2022/04/01 09:51:22;;;;;;;;;;;2.00;99.90;;;;;;5037740;28;19921;-64
2022/04/01 09:53:52;;;;;;;;;;;2.00;99.90;;;;;;5037833;28;19920;-64
2022/04/01 09:56:18;;;;;;;;;;;2.10;99.90;;;;;;5039501;28;19912;-66
2022/04/01 09:58:44;;;;;;;;;;;2.00;99.90;;;;;;5039201;28;19958;-65
2022/04/01 10:01:10;;;;;;;;;;;2.10;99.90;;;;;;5022625;28;19913;-65
2022/04/01 10:03:35;;;;;;;;;;;2.10;99.90;;;;;;5038082;28;20047;-64
2022/04/01 10:06:01;;;;;;;;;;;2.00;99.90;;;;;;5038104;28;19912;-63
2022/04/01 10:08:28;;;;;;;;;;;2.10;99.90;;;;;;5039662;28;20447;-63
2022/04/01 10:10:54;;;;;;;;;;;2.20;99.90;;;;;;5039129;28;19917;-65
2022/04/01 10:13:24;;;;;;;;;;;2.20;99.90;;;;;;5039332;28;19924;-63
2022/04/01 10:15:50;;;;;;;;;;;2.20;99.90;;;;;;5038707;28;19916;-66
2022/04/01 10:18:18;;;;;;;;;;;2.20;99.90;;;;;;5037591;28;19912;-67
2022/04/01 10:20:43;;;;;;;;;;;2.20;99.90;;;;;;5035624;28;19967;-67
2022/04/01 10:23:11;;;;;;;;;;;2.20;99.90;;;;;;5040413;28;20340;-63
2022/04/01 10:25:36;;;;;;;;;;;2.30;99.90;;;;;;5037876;28;20278;-66
2022/04/01 10:28:03;;;;;;;;;;;2.20;99.90;;;;;;5039861;28;19913;-65
2022/04/01 10:30:31;;;;;;;;;;;2.30;99.90;;;;;;5037136;28;19948;-63
2022/04/01 10:32:57;;;;;;;;;;;2.20;99.90;;;;;;5036940;28;19924;-61
2022/04/01 10:35:22;;;;;;;;;;;2.20;99.90;;;;;;5039361;28;19913;-65
2022/04/01 10:37:52;;;;;;;;;;;2.20;99.90;;;;;;5038750;28;20063;-66
2022/04/01 10:40:18;;;;;;;;;;;2.20;99.90;;;;;;5041897;28;20415;-63
2022/04/01 10:42:44;;;;;;;;;;;2.30;99.90;;;;;;5038622;28;20364;-63
2022/04/01 10:45:13;;;;;;;;;;;2.30;99.90;;;;;;5036107;28;19920;-64
2022/04/01 10:53:33;;;;;;;;;;;2.20;99.90;;;;;;5040378;28;19927;-65
2022/04/01 10:56:25;;;;;;;;;;;2.20;99.90;;;;;;5039228;28;20023;-66
2022/04/01 10:59:01;;;;;;;;;;;2.20;99.90;;;;;;5034232;28;19917;-65
2022/04/01 11:01:26;;;;;;;;;;;2.20;99.90;;;;;;5041585;28;19974;-64
2022/04/01 11:03:52;;;;;;;;;;;2.20;99.90;;;;;;5042787;28;19916;-67
2022/04/01 11:06:22;;;;;;;;;;;2.30;99.90;;;;;;5041697;28;19988;-66
2022/04/01 11:08:51;;;;;;;;;;;2.30;99.90;;;;;;5039478;28;19917;-68
2022/04/01 11:11:16;;;;;;;;;;;2.40;99.90;;;;;;5041217;28;20396;-67
2022/04/01 11:13:42;;;;;;;;;;;2.30;99.90;;;;;;5041607;28;19917;-64
2022/04/01 11:16:15;;;;;;;;;;;2.30;99.90;;;;;;5044084;28;19963;-66
2022/04/01 11:19:00;;;;;;;;;;;2.30;99.90;;;;;;5041730;28;20297;-62
2022/04/01 11:21:32;;;;;;;;;;;2.40;99.90;;;;;;5046246;28;19959;-65
2022/04/01 11:24:04;;;;;;;;;;;2.30;99.90;;;;;;5040263;28;20385;-64
2022/04/01 11:26:39;;;;;;;;;;;2.30;99.90;;;;;;5045448;28;20028;-66
2022/04/01 11:29:15;;;;;;;;;;;2.30;99.90;;;;;;5043252;28;20443;-63
2022/04/01 11:31:41;;;;;;;;;;;2.40;99.90;;;;;;5040980;28;19925;-62
2022/04/01 11:34:07;;;;;;;;;;;2.40;99.90;;;;;;5043451;28;19918;-65
2022/04/01 11:36:32;;;;;;;;;;;2.40;99.90;;;;;;5040841;28;19927;-64
2022/04/01 11:38:59;;;;;;;;;;;2.40;99.90;;;;;;5040073;28;19914;-63
2022/04/01 11:41:25;;;;;;;;;;;2.40;99.90;;;;;;5042903;28;19952;-64
2022/04/01 11:43:50;;;;;;;;;;;2.40;99.90;;;;;;5043374;28;19956;-63
2022/04/01 11:46:16;;;;;;;;;;;2.40;99.90;;;;;;5043066;28;20395;-60
2022/04/01 11:48:42;;;;;;;;;;;2.50;99.90;;;;;;5043877;28;19919;-60
2022/04/01 11:51:13;;;;;;;;;;;2.40;99.90;;;;;;5039500;28;19913;-61
2022/04/01 11:53:43;;;;;;;;;;;2.40;99.90;;;;;;5040177;28;20301;-63
2022/04/01 11:56:10;;;;;;;;;;;2.30;99.90;;;;;;5045795;28;19995;-62
2022/04/01 11:58:48;;;;;;;;;;;2.30;99.90;;;;;;5044206;28;20372;-63
2022/04/01 12:01:15;;;;;;;;;;;2.30;99.90;;;;;;5042704;28;19913;-63
2022/04/01 12:03:41;;;;;;;;;;;2.30;99.90;;;;;;5041034;28;19948;-62
2022/04/01 12:08:51;;;;;;;;;;;2.30;99.90;;;;;;5038435;28;20044;-63
2022/04/01 12:11:17;;;;;;;;;;;2.30;99.90;;;;;;5041817;28;19924;-62
2022/04/01 12:13:50;;;;;;;;;;;2.30;99.90;;;;;;5039465;28;19920;-61
2022/04/01 12:16:16;;;;;;;;;;;2.30;99.90;;;;;;5042644;28;20391;-60
2022/04/01 12:18:48;;;;;;;;;;;2.30;99.90;;;;;;5040661;28;20007;-61
2022/04/01 12:21:15;;;;;;;;;;;2.30;99.90;;;;;;5039625;28;20393;-62
2022/04/01 12:23:44;;;;;;;;;;;2.40;99.90;;;;;;5040836;28;20007;-62
2022/04/01 12:26:09;;;;;;;;;;;2.30;99.90;;;;;;5042325;28;19917;-61
2022/04/01 12:28:37;;;;;;;;;;;2.30;99.90;;;;;;5039764;28;20372;-61
2022/04/01 12:31:02;;;;;;;;;;;2.30;99.90;;;;;;5041765;28;19954;-61
2022/04/01 12:33:32;;;;;;;;;;;2.20;99.90;;;;;;5039595;28;19943;-61
2022/04/01 12:36:04;;;;;;;;;;;2.30;99.90;;;;;;5038991;28;19924;-61
2022/04/01 12:38:53;;;;;;;;;;;2.30;99.90;;;;;;5041543;28;19913;-62
2022/04/01 12:41:19;;;;;;;;;;;2.40;99.90;;;;;;5040306;28;19960;-61
2022/04/01 12:43:46;;;;;;;;;;;2.30;99.90;;;;;;5040557;28;20548;-62
2022/04/01 12:46:12;;;;;;;;;;;2.30;99.90;;;;;;5042370;28;19998;-61
2022/04/01 12:48:58;;;;;;;;;;;2.40;99.90;;;;;;5040288;28;19912;-60
2022/04/01 12:51:28;;;;;;;;;;;2.40;99.90;;;;;;5038602;28;19923;-61
2022/04/01 12:53:56;;;;;;;;;;;2.40;99.90;;;;;;5038428;28;20633;-62
2022/04/01 12:56:23;;;;;;;;;;;2.40;99.90;;;;;;5044200;28;19913;-61
2022/04/01 12:58:53;;;;;;;;;;;2.40;99.90;;;;;;5040421;28;20283;-63
2022/04/01 13:01:20;;;;;;;;;;;2.40;99.90;;;;;;5043311;28;19913;-61
2022/04/01 13:03:45;;;;;;;;;;;2.40;99.90;;;;;;5040114;28;20413;-62
2022/04/01 13:06:14;;;;;;;;;;;2.40;99.90;;;;;;5038049;28;19974;-60
2022/04/01 13:08:40;;;;;;;;;;;2.50;99.90;;;;;;5039723;28;20370;-61
2022/04/01 13:11:09;;;;;;;;;;;2.50;99.90;;;;;;5041272;28;20014;-60
2022/04/01 13:13:35;;;;;;;;;;;2.50;99.90;;;;;;5039294;28;20402;-62
2022/04/01 13:16:00;;;;;;;;;;;2.50;99.90;;;;;;5041140;28;19986;-63
2022/04/01 13:18:27;;;;;;;;;;;2.50;99.90;;;;;;5020905;28;20022;-62
2022/04/01 13:20:53;;;;;;;;;;;2.60;99.90;;;;;;5038078;28;20000;-61
2022/04/01 13:23:18;;;;;;;;;;;2.60;99.90;;;;;;5041636;28;19999;-62
2022/04/01 13:25:44;;;;;;;;;;;2.60;99.90;;;;;;5038523;28;19921;-60
2022/04/01 13:28:11;;;;;;;;;;;2.60;99.90;;;;;;5040902;28;19912;-61
2022/04/01 13:30:37;;;;;;;;;;;2.60;99.90;;;;;;5039377;28;19913;-60
2022/04/01 13:33:02;;;;;;;;;;;2.50;99.90;;;;;;5037926;28;19924;-60
2022/04/01 13:35:29;;;;;;;;;;;2.40;99.90;;;;;;5020615;28;20409;-60
2022/04/01 13:37:55;;;;;;;;;;;2.40;99.90;;;;;;5038369;28;20382;-60
2022/04/01 13:40:21;;;;;;;;;;;2.30;99.90;;;;;;5040726;28;19960;-60
2022/04/01 13:42:47;;;;;;;;;;;2.20;99.90;;;;;;5038800;28;19942;-61
2022/04/01 13:45:13;;;;;;;;;;;2.20;99.90;;;;;;5037259;28;19921;-60
2022/04/01 13:47:38;;;;;;;;;;;2.10;99.90;;;;;;5038923;28;19917;-61
2022/04/01 13:50:05;;;;;;;;;;;2.10;99.90;;;;;;5039927;28;20400;-61
2022/04/01 13:52:30;;;;;;;;;;;2.20;99.90;;;;;;5038379;28;19929;-60
2022/04/01 13:54:56;;;;;;;;;;;2.20;99.90;;;;;;5038924;28;19923;-61
2022/04/01 13:57:22;;;;;;;;;;;2.20;99.90;;;;;;5037645;28;19916;-60
2022/04/01 13:59:48;;;;;;;;;;;2.30;99.90;;;;;;5037726;28;19917;-61
2022/04/01 14:02:14;;;;;;;;;;;2.20;99.90;;;;;;5043649;28;19924;-61
2022/04/01 14:04:40;;;;;;;;;;;2.30;99.90;;;;;;5046041;28;19921;-62
2022/04/01 14:07:10;;;;;;;;;;;2.30;99.90;;;;;;5042111;28;19913;-60
2022/04/01 14:09:36;;;;;;;;;;;2.40;99.90;;;;;;5036846;28;19963;-61
2022/04/01 14:12:02;;;;;;;;;;;2.40;99.90;;;;;;5036287;28;20155;-60
2022/04/01 14:14:28;;;;;;;;;;;2.40;99.90;;;;;;5038568;28;19962;-61
2022/04/01 14:16:54;;;;;;;;;;;2.40;99.90;;;;;;5040746;28;19921;-60
2022/04/01 14:19:20;;;;;;;;;;;2.40;99.90;;;;;;5043272;28;19917;-57
2022/04/01 14:21:47;;;;;;;;;;;2.40;99.90;;;;;;5038686;28;20011;-61
2022/04/01 14:24:13;;;;;;;;;;;2.40;99.90;;;;;;5036152;28;19917;-60
2022/04/01 14:26:38;;;;;;;;;;;2.30;99.90;;;;;;5042289;28;19936;-61
2022/04/01 14:31:57;;;;;;;;;;;2.30;99.90;;;;;;5037850;28;19932;-60
2022/04/01 14:34:28;;;;;;;;;;;2.30;99.90;;;;;;5043131;28;20017;-61
2022/04/01 14:36:58;;;;;;;;;;;2.40;99.90;;;;;;5038560;28;19917;-61
2022/04/01 14:39:24;;;;;;;;;;;2.40;99.90;;;;;;5044543;28;20000;-62
2022/04/01 14:41:50;;;;;;;;;;;2.40;99.90;;;;;;5045257;28;19912;-60
2022/04/01 14:44:17;;;;;;;;;;;2.40;99.90;;;;;;5038519;28;19939;-60
2022/04/01 14:46:42;;;;;;;;;;;2.40;99.90;;;;;;5037558;28;19920;-60
2022/04/01 14:49:08;;;;;;;;;;;2.40;99.90;;;;;;5042562;28;19917;-62
2022/04/01 14:51:33;;;;;;;;;;;2.40;99.90;;;;;;5036267;28;20398;-61